Aérodrome :
LOGIN :

S'inscrire | Disclaimer

   EN    FR    IT 

 










Légende :    VFR   VFR Marginal   IFR   IFR Intensif   IFR Très Intensif
Visi : 
Plafond : 
>= 8 km
>= 3000ft
5 à 8 km
1000 à 3000 ft
1500m à 5 km
500 à 1000 ft
800 à 1500m
200 à 500 ft
< 800m
< 200 ft
Symboles :   Orages  Brouillard  Fortes neiges  Fortes précipitations  Vent > 20 kt
SIGMETs :   Divers  Orages  Givrage  Turbulence  Onde Orograph.  Cendres Volcan.







- Altitude de l'aérodrome : 989 ft
- Code IATA : TRN


LIMF - Torino Caselle

DERNIER METAR :
  • 260350Z 33007KT 8000 RA FEW020 OVC050 10/09 Q1006

METARs EXPIRÉS :
  • 260320Z 33007KT 8000 -RA BKN040 OVC050 11/09 Q1007
  • 260250Z 33008KT 8000 -RA BKN050 BKN080 11/09 Q1007
  • 260220Z 33008KT 9999 -RA SCT050 BKN070 11/09 Q1007
  • 260150Z 34005KT 9999 -RA SCT050 BKN090 12/09 Q1007
  • 260120Z 33006KT 9999 BKN080 BKN120 12/08 Q1007
  • 260050Z 35005KT 9999 BKN080 BKN120 11/09 Q1007

TAF TAF LIMF
Valide du 26 à 00h jusqu'au 27 à 00h UTC


252300Z 2600/2624 05006KT 8000 SCT025 BKN050
Pas de NOTAMs connus pour ce terrain.



MET'MAP, la Météo Aéronautique d'un coup d'oeil ! - Copyright ORBIFLY Décembre 2007 - Disclaimer

ORBIFLY MET'MAP TEAM :

Programmation & Développement : Alexandra Zaïnal
Conception & Développement : Baudouin d'Aumeries
Co-Programmation & Développement : Marc-Olivier Méhu
Soutien technique & logistique : Manuel Goepfert

Contact : metmap@orbifly.com




SOURCES & CREDITS :

   NOAA